sensor_id;sensor_type;location;lat;lon;timestamp;temperature;humidity
22288;DHT22;11312;51.464;6.968;2023-05-10T00:00:44;14.30;99.90
22288;DHT22;11312;51.464;6.968;2023-05-10T00:03:09;14.40;99.90
22288;DHT22;11312;51.464;6.968;2023-05-10T00:05:35;14.40;99.90
22288;DHT22;11312;51.464;6.968;2023-05-10T00:08:01;14.50;99.90
22288;DHT22;11312;51.464;6.968;2023-05-10T00:10:26;14.40;99.90
22288;DHT22;11312;51.464;6.968;2023-05-10T00:12:52;14.40;99.90
22288;DHT22;11312;51.464;6.968;2023-05-10T00:15:17;14.40;99.90
22288;DHT22;11312;51.464;6.968;2023-05-10T00:17:43;14.30;99.90
22288;DHT22;11312;51.464;6.968;2023-05-10T00:20:09;14.40;99.90
22288;DHT22;11312;51.464;6.968;2023-05-10T00:22:35;14.40;99.90
22288;DHT22;11312;51.464;6.968;2023-05-10T00:25:01;14.30;99.90
22288;DHT22;11312;51.464;6.968;2023-05-10T00:27:26;14.30;99.90
22288;DHT22;11312;51.464;6.968;2023-05-10T00:29:52;14.20;99.90
22288;DHT22;11312;51.464;6.968;2023-05-10T00:32:18;14.30;99.90
22288;DHT22;11312;51.464;6.968;2023-05-10T00:34:43;14.20;99.90
22288;DHT22;11312;51.464;6.968;2023-05-10T00:37:09;14.30;99.90
22288;DHT22;11312;51.464;6.968;2023-05-10T00:39:34;14.30;99.90
22288;DHT22;11312;51.464;6.968;2023-05-10T00:42:00;14.30;99.90
22288;DHT22;11312;51.464;6.968;2023-05-10T00:44:26;14.40;99.90
22288;DHT22;11312;51.464;6.968;2023-05-10T00:46:52;14.40;99.90
22288;DHT22;11312;51.464;6.968;2023-05-10T00:49:18;14.20;99.90
22288;DHT22;11312;51.464;6.968;2023-05-10T00:51:45;14.30;99.90
22288;DHT22;11312;51.464;6.968;2023-05-10T00:54:14;14.20;99.90
22288;DHT22;11312;51.464;6.968;2023-05-10T00:56:40;14.30;99.90
22288;DHT22;11312;51.464;6.968;2023-05-10T00:59:08;14.30;99.90
22288;DHT22;11312;51.464;6.968;2023-05-10T01:01:34;14.30;99.90
22288;DHT22;11312;51.464;6.968;2023-05-10T01:04:01;14.30;99.90
22288;DHT22;11312;51.464;6.968;2023-05-10T01:06:27;14.20;99.90
22288;DHT22;11312;51.464;6.968;2023-05-10T01:08:53;14.30;99.90
22288;DHT22;11312;51.464;6.968;2023-05-10T01:11:18;14.20;99.90
22288;DHT22;11312;51.464;6.968;2023-05-10T01:13:55;14.10;99.90
22288;DHT22;11312;51.464;6.968;2023-05-10T01:16:22;14.10;99.90
22288;DHT22;11312;51.464;6.968;2023-05-10T01:18:48;14.20;99.90
22288;DHT22;11312;51.464;6.968;2023-05-10T01:21:30;14.20;99.90
22288;DHT22;11312;51.464;6.968;2023-05-10T01:29:53;14.20;99.90
22288;DHT22;11312;51.464;6.968;2023-05-10T01:32:57;14.10;99.90
22288;DHT22;11312;51.464;6.968;2023-05-10T01:35:42;14.20;99.90
22288;DHT22;11312;51.464;6.968;2023-05-10T01:44:01;14.00;99.90
22288;DHT22;11312;51.464;6.968;2023-05-10T01:46:35;14.00;99.90
22288;DHT22;11312;51.464;6.968;2023-05-10T01:49:02;14.00;99.90
22288;DHT22;11312;51.464;6.968;2023-05-10T01:51:38;14.00;99.90
22288;DHT22;11312;51.464;6.968;2023-05-10T01:54:08;14.00;99.90
22288;DHT22;11312;51.464;6.968;2023-05-10T01:56:35;14.10;99.90
22288;DHT22;11312;51.464;6.968;2023-05-10T01:59:08;14.10;99.90
22288;DHT22;11312;51.464;6.968;2023-05-10T02:01:36;14.00;99.90
22288;DHT22;11312;51.464;6.968;2023-05-10T02:04:03;14.00;99.90
22288;DHT22;11312;51.464;6.968;2023-05-10T02:06:31;14.00;99.90
22288;DHT22;11312;51.464;6.968;2023-05-10T02:08:57;13.90;99.90
22288;DHT22;11312;51.464;6.968;2023-05-10T02:11:23;13.90;99.90
22288;DHT22;11312;51.464;6.968;2023-05-10T02:13:51;14.00;99.90
22288;DHT22;11312;51.464;6.968;2023-05-10T02:16:23;13.90;99.90
22288;DHT22;11312;51.464;6.968;2023-05-10T02:18:50;13.90;99.90
22288;DHT22;11312;51.464;6.968;2023-05-10T02:21:17;14.00;99.90
22288;DHT22;11312;51.464;6.968;2023-05-10T02:23:43;13.90;99.90
22288;DHT22;11312;51.464;6.968;2023-05-10T02:26:10;13.90;99.90
22288;DHT22;11312;51.464;6.968;2023-05-10T02:28:37;14.10;99.90
22288;DHT22;11312;51.464;6.968;2023-05-10T02:31:05;13.90;99.90
22288;DHT22;11312;51.464;6.968;2023-05-10T02:33:31;14.00;99.90
22288;DHT22;11312;51.464;6.968;2023-05-10T02:35:58;14.00;99.90
22288;DHT22;11312;51.464;6.968;2023-05-10T02:38:25;13.90;99.90
22288;DHT22;11312;51.464;6.968;2023-05-10T02:40:52;13.90;99.90
22288;DHT22;11312;51.464;6.968;2023-05-10T02:43:18;13.90;99.90
22288;DHT22;11312;51.464;6.968;2023-05-10T02:45:47;14.00;99.90
22288;DHT22;11312;51.464;6.968;2023-05-10T02:48:13;14.00;99.90
22288;DHT22;11312;51.464;6.968;2023-05-10T02:50:45;13.90;99.90
22288;DHT22;11312;51.464;6.968;2023-05-10T02:53:15;13.90;99.90
22288;DHT22;11312;51.464;6.968;2023-05-10T02:55:45;13.90;99.90
22288;DHT22;11312;51.464;6.968;2023-05-10T02:58:12;13.90;99.90
22288;DHT22;11312;51.464;6.968;2023-05-10T03:00:38;13.90;99.90
22288;DHT22;11312;51.464;6.968;2023-05-10T03:03:04;13.90;99.90
22288;DHT22;11312;51.464;6.968;2023-05-10T03:05:29;13.90;99.90
22288;DHT22;11312;51.464;6.968;2023-05-10T03:07:55;13.90;99.90
22288;DHT22;11312;51.464;6.968;2023-05-10T03:10:26;13.90;99.90
22288;DHT22;11312;51.464;6.968;2023-05-10T03:18:29;13.90;99.90
22288;DHT22;11312;51.464;6.968;2023-05-10T03:21:02;13.80;99.90
22288;DHT22;11312;51.464;6.968;2023-05-10T03:23:35;13.90;99.90
22288;DHT22;11312;51.464;6.968;2023-05-10T03:26:05;13.90;99.90
22288;DHT22;11312;51.464;6.968;2023-05-10T03:28:31;13.80;99.90
22288;DHT22;11312;51.464;6.968;2023-05-10T03:30:59;13.80;99.90
22288;DHT22;11312;51.464;6.968;2023-05-10T03:33:24;13.80;99.90
22288;DHT22;11312;51.464;6.968;2023-05-10T03:35:50;13.90;99.90
22288;DHT22;11312;51.464;6.968;2023-05-10T03:38:16;13.70;99.90
22288;DHT22;11312;51.464;6.968;2023-05-10T03:40:42;13.60;99.90
22288;DHT22;11312;51.464;6.968;2023-05-10T03:43:07;13.70;99.90
22288;DHT22;11312;51.464;6.968;2023-05-10T03:45:33;13.70;99.90
22288;DHT22;11312;51.464;6.968;2023-05-10T03:47:59;13.90;99.90
22288;DHT22;11312;51.464;6.968;2023-05-10T03:50:24;13.90;99.90
22288;DHT22;11312;51.464;6.968;2023-05-10T03:52:50;13.80;99.90
22288;DHT22;11312;51.464;6.968;2023-05-10T03:55:16;13.80;99.90
22288;DHT22;11312;51.464;6.968;2023-05-10T03:57:42;13.90;99.90
22288;DHT22;11312;51.464;6.968;2023-05-10T04:00:08;13.80;99.90
22288;DHT22;11312;51.464;6.968;2023-05-10T04:02:34;13.80;99.90
22288;DHT22;11312;51.464;6.968;2023-05-10T04:05:00;13.80;99.90
22288;DHT22;11312;51.464;6.968;2023-05-10T04:07:26;13.80;99.90
22288;DHT22;11312;51.464;6.968;2023-05-10T04:09:52;13.80;99.90
22288;DHT22;11312;51.464;6.968;2023-05-10T04:12:17;13.80;99.90
22288;DHT22;11312;51.464;6.968;2023-05-10T04:14:43;13.60;99.90
22288;DHT22;11312;51.464;6.968;2023-05-10T04:17:09;13.60;99.90
22288;DHT22;11312;51.464;6.968;2023-05-10T04:19:35;13.60;99.90
22288;DHT22;11312;51.464;6.968;2023-05-10T04:22:02;13.80;99.90
22288;DHT22;11312;51.464;6.968;2023-05-10T04:24:28;13.70;99.90
22288;DHT22;11312;51.464;6.968;2023-05-10T04:26:54;13.60;99.90
22288;DHT22;11312;51.464;6.968;2023-05-10T04:29:20;13.70;99.90
22288;DHT22;11312;51.464;6.968;2023-05-10T04:31:46;13.80;99.90
22288;DHT22;11312;51.464;6.968;2023-05-10T04:34:11;13.70;99.90
22288;DHT22;11312;51.464;6.968;2023-05-10T04:36:37;13.80;99.90
22288;DHT22;11312;51.464;6.968;2023-05-10T04:39:03;13.80;99.90
22288;DHT22;11312;51.464;6.968;2023-05-10T04:41:29;13.80;99.90
22288;DHT22;11312;51.464;6.968;2023-05-10T04:43:55;13.80;99.90
22288;DHT22;11312;51.464;6.968;2023-05-10T04:46:21;13.80;99.90
22288;DHT22;11312;51.464;6.968;2023-05-10T04:48:47;13.80;99.90
22288;DHT22;11312;51.464;6.968;2023-05-10T04:51:12;13.90;99.90
22288;DHT22;11312;51.464;6.968;2023-05-10T04:53:38;13.70;99.90
22288;DHT22;11312;51.464;6.968;2023-05-10T04:56:04;13.90;99.90
22288;DHT22;11312;51.464;6.968;2023-05-10T04:58:30;14.00;99.90
22288;DHT22;11312;51.464;6.968;2023-05-10T05:00:55;14.00;99.90
22288;DHT22;11312;51.464;6.968;2023-05-10T05:03:21;14.00;99.90
22288;DHT22;11312;51.464;6.968;2023-05-10T05:05:47;14.00;99.90
22288;DHT22;11312;51.464;6.968;2023-05-10T05:08:13;14.00;99.90
22288;DHT22;11312;51.464;6.968;2023-05-10T05:10:39;13.80;99.90
22288;DHT22;11312;51.464;6.968;2023-05-10T05:13:05;13.90;99.90
22288;DHT22;11312;51.464;6.968;2023-05-10T05:15:31;13.90;99.90
22288;DHT22;11312;51.464;6.968;2023-05-10T05:17:56;13.90;99.90
22288;DHT22;11312;51.464;6.968;2023-05-10T05:20:22;13.40;99.90
22288;DHT22;11312;51.464;6.968;2023-05-10T05:22:48;14.00;99.90
22288;DHT22;11312;51.464;6.968;2023-05-10T05:25:13;13.80;99.90
22288;DHT22;11312;51.464;6.968;2023-05-10T05:27:40;13.90;99.90
22288;DHT22;11312;51.464;6.968;2023-05-10T05:30:06;15.10;99.90
22288;DHT22;11312;51.464;6.968;2023-05-10T05:32:32;14.00;99.90
22288;DHT22;11312;51.464;6.968;2023-05-10T05:34:57;13.90;99.90
22288;DHT22;11312;51.464;6.968;2023-05-10T05:37:23;14.00;99.90
22288;DHT22;11312;51.464;6.968;2023-05-10T05:39:50;13.90;99.90
22288;DHT22;11312;51.464;6.968;2023-05-10T05:42:15;14.00;99.90
22288;DHT22;11312;51.464;6.968;2023-05-10T05:44:43;14.10;99.90
22288;DHT22;11312;51.464;6.968;2023-05-10T05:47:08;14.10;99.90
22288;DHT22;11312;51.464;6.968;2023-05-10T05:49:34;14.00;99.90
22288;DHT22;11312;51.464;6.968;2023-05-10T05:52:03;14.00;99.90
22288;DHT22;11312;51.464;6.968;2023-05-10T05:54:30;14.10;99.90
22288;DHT22;11312;51.464;6.968;2023-05-10T05:56:57;14.10;99.90
22288;DHT22;11312;51.464;6.968;2023-05-10T05:59:23;14.00;99.90
22288;DHT22;11312;51.464;6.968;2023-05-10T06:01:49;14.20;99.90
22288;DHT22;11312;51.464;6.968;2023-05-10T06:04:15;14.30;99.90
22288;DHT22;11312;51.464;6.968;2023-05-10T06:06:41;14.20;99.90
22288;DHT22;11312;51.464;6.968;2023-05-10T06:09:08;15.20;99.90
22288;DHT22;11312;51.464;6.968;2023-05-10T06:11:34;14.30;99.90
22288;DHT22;11312;51.464;6.968;2023-05-10T06:14:00;14.10;99.90
22288;DHT22;11312;51.464;6.968;2023-05-10T06:16:26;14.10;99.90
22288;DHT22;11312;51.464;6.968;2023-05-10T06:18:51;14.30;99.90
22288;DHT22;11312;51.464;6.968;2023-05-10T06:21:17;14.20;99.90
22288;DHT22;11312;51.464;6.968;2023-05-10T06:23:42;14.20;99.90
22288;DHT22;11312;51.464;6.968;2023-05-10T06:26:09;14.30;99.90
22288;DHT22;11312;51.464;6.968;2023-05-10T06:28:35;14.40;99.90
22288;DHT22;11312;51.464;6.968;2023-05-10T06:31:03;14.20;99.90
22288;DHT22;11312;51.464;6.968;2023-05-10T06:33:29;14.30;99.90
22288;DHT22;11312;51.464;6.968;2023-05-10T06:35:54;14.50;99.90
22288;DHT22;11312;51.464;6.968;2023-05-10T06:38:20;14.40;99.90
22288;DHT22;11312;51.464;6.968;2023-05-10T06:40:46;14.60;99.90
22288;DHT22;11312;51.464;6.968;2023-05-10T06:43:11;14.60;99.90
22288;DHT22;11312;51.464;6.968;2023-05-10T06:45:37;14.60;99.90
22288;DHT22;11312;51.464;6.968;2023-05-10T06:48:03;14.60;99.90
22288;DHT22;11312;51.464;6.968;2023-05-10T06:50:28;14.60;99.90
22288;DHT22;11312;51.464;6.968;2023-05-10T06:52:54;14.60;99.90
22288;DHT22;11312;51.464;6.968;2023-05-10T06:55:21;14.50;99.90
22288;DHT22;11312;51.464;6.968;2023-05-10T06:57:46;14.40;99.90
22288;DHT22;11312;51.464;6.968;2023-05-10T07:00:13;14.60;99.90
22288;DHT22;11312;51.464;6.968;2023-05-10T07:02:39;14.60;99.90
22288;DHT22;11312;51.464;6.968;2023-05-10T07:05:05;14.80;99.90
22288;DHT22;11312;51.464;6.968;2023-05-10T07:07:31;14.70;99.90
22288;DHT22;11312;51.464;6.968;2023-05-10T07:09:56;14.80;99.90
22288;DHT22;11312;51.464;6.968;2023-05-10T07:12:23;15.00;99.90
22288;DHT22;11312;51.464;6.968;2023-05-10T07:14:49;15.00;99.90
22288;DHT22;11312;51.464;6.968;2023-05-10T07:17:15;15.00;99.90
22288;DHT22;11312;51.464;6.968;2023-05-10T07:19:40;14.80;99.90
22288;DHT22;11312;51.464;6.968;2023-05-10T07:22:06;15.00;99.90
22288;DHT22;11312;51.464;6.968;2023-05-10T07:24:32;15.10;99.90
22288;DHT22;11312;51.464;6.968;2023-05-10T07:26:58;15.00;99.90
22288;DHT22;11312;51.464;6.968;2023-05-10T07:29:24;15.00;99.90
22288;DHT22;11312;51.464;6.968;2023-05-10T07:31:50;15.10;99.90
22288;DHT22;11312;51.464;6.968;2023-05-10T07:34:15;15.10;99.90
22288;DHT22;11312;51.464;6.968;2023-05-10T07:36:41;15.10;99.90
22288;DHT22;11312;51.464;6.968;2023-05-10T07:39:07;14.90;99.90
22288;DHT22;11312;51.464;6.968;2023-05-10T07:41:32;14.90;99.90
22288;DHT22;11312;51.464;6.968;2023-05-10T07:43:58;14.70;99.90
22288;DHT22;11312;51.464;6.968;2023-05-10T07:46:24;14.80;99.90
22288;DHT22;11312;51.464;6.968;2023-05-10T07:48:49;14.70;99.90
22288;DHT22;11312;51.464;6.968;2023-05-10T07:51:15;14.90;99.90
22288;DHT22;11312;51.464;6.968;2023-05-10T07:53:40;14.70;99.90
22288;DHT22;11312;51.464;6.968;2023-05-10T07:56:26;14.80;99.90
22288;DHT22;11312;51.464;6.968;2023-05-10T07:58:55;14.80;99.90
22288;DHT22;11312;51.464;6.968;2023-05-10T08:01:21;14.70;99.90
22288;DHT22;11312;51.464;6.968;2023-05-10T08:03:48;14.90;99.90
22288;DHT22;11312;51.464;6.968;2023-05-10T08:06:14;15.00;99.90
22288;DHT22;11312;51.464;6.968;2023-05-10T08:08:41;14.90;99.90
22288;DHT22;11312;51.464;6.968;2023-05-10T08:11:07;15.00;99.90
22288;DHT22;11312;51.464;6.968;2023-05-10T08:13:32;15.10;99.90
22288;DHT22;11312;51.464;6.968;2023-05-10T08:15:58;14.90;99.90
22288;DHT22;11312;51.464;6.968;2023-05-10T08:18:24;14.90;99.90
22288;DHT22;11312;51.464;6.968;2023-05-10T08:20:50;14.70;99.90
22288;DHT22;11312;51.464;6.968;2023-05-10T08:23:15;14.70;99.90
22288;DHT22;11312;51.464;6.968;2023-05-10T08:25:41;14.60;99.90
22288;DHT22;11312;51.464;6.968;2023-05-10T08:28:07;14.80;99.90
22288;DHT22;11312;51.464;6.968;2023-05-10T08:30:32;14.90;99.90
22288;DHT22;11312;51.464;6.968;2023-05-10T08:32:58;15.00;99.90
22288;DHT22;11312;51.464;6.968;2023-05-10T08:35:24;15.00;99.90
22288;DHT22;11312;51.464;6.968;2023-05-10T08:37:51;15.00;99.90
22288;DHT22;11312;51.464;6.968;2023-05-10T08:40:19;15.80;99.90
22288;DHT22;11312;51.464;6.968;2023-05-10T08:42:55;16.30;99.90
22288;DHT22;11312;51.464;6.968;2023-05-10T08:45:23;16.40;99.90
22288;DHT22;11312;51.464;6.968;2023-05-10T08:47:50;16.00;99.90
22288;DHT22;11312;51.464;6.968;2023-05-10T08:50:17;16.00;99.90
22288;DHT22;11312;51.464;6.968;2023-05-10T08:52:45;16.30;99.90
22288;DHT22;11312;51.464;6.968;2023-05-10T08:55:13;16.30;99.90
22288;DHT22;11312;51.464;6.968;2023-05-10T08:57:38;16.20;99.90
22288;DHT22;11312;51.464;6.968;2023-05-10T09:00:05;16.20;99.90
22288;DHT22;11312;51.464;6.968;2023-05-10T09:02:31;15.90;99.90
22288;DHT22;11312;51.464;6.968;2023-05-10T09:04:56;15.60;99.90
22288;DHT22;11312;51.464;6.968;2023-05-10T09:07:22;16.10;99.90
22288;DHT22;11312;51.464;6.968;2023-05-10T09:09:48;16.40;99.90
22288;DHT22;11312;51.464;6.968;2023-05-10T09:12:15;16.40;99.90
22288;DHT22;11312;51.464;6.968;2023-05-10T09:14:42;16.60;99.90
22288;DHT22;11312;51.464;6.968;2023-05-10T09:17:09;16.70;99.90
22288;DHT22;11312;51.464;6.968;2023-05-10T09:19:35;16.80;99.90
22288;DHT22;11312;51.464;6.968;2023-05-10T09:22:01;16.90;99.90
22288;DHT22;11312;51.464;6.968;2023-05-10T09:24:29;16.60;99.90
22288;DHT22;11312;51.464;6.968;2023-05-10T09:26:57;16.70;99.90
22288;DHT22;11312;51.464;6.968;2023-05-10T09:29:22;16.60;99.90
22288;DHT22;11312;51.464;6.968;2023-05-10T09:31:50;16.40;99.90
22288;DHT22;11312;51.464;6.968;2023-05-10T09:34:30;16.30;99.90
22288;DHT22;11312;51.464;6.968;2023-05-10T09:36:58;15.80;99.90
22288;DHT22;11312;51.464;6.968;2023-05-10T09:39:37;15.70;99.90
22288;DHT22;11312;51.464;6.968;2023-05-10T09:42:05;15.50;99.90
22288;DHT22;11312;51.464;6.968;2023-05-10T09:44:35;15.70;99.90
22288;DHT22;11312;51.464;6.968;2023-05-10T09:47:04;15.70;99.90
22288;DHT22;11312;51.464;6.968;2023-05-10T09:49:30;15.50;99.90
22288;DHT22;11312;51.464;6.968;2023-05-10T09:54:27;15.90;99.90
22288;DHT22;11312;51.464;6.968;2023-05-10T09:56:53;16.00;99.90
22288;DHT22;11312;51.464;6.968;2023-05-10T09:59:19;15.80;99.90
22288;DHT22;11312;51.464;6.968;2023-05-10T10:01:49;15.70;99.90
22288;DHT22;11312;51.464;6.968;2023-05-10T10:04:15;15.70;99.90
22288;DHT22;11312;51.464;6.968;2023-05-10T10:06:41;15.70;99.90
22288;DHT22;11312;51.464;6.968;2023-05-10T10:09:07;15.80;99.90
22288;DHT22;11312;51.464;6.968;2023-05-10T10:11:38;15.70;99.90
22288;DHT22;11312;51.464;6.968;2023-05-10T10:14:04;15.90;99.90
22288;DHT22;11312;51.464;6.968;2023-05-10T10:16:31;15.70;99.90
22288;DHT22;11312;51.464;6.968;2023-05-10T10:18:57;15.80;99.90
22288;DHT22;11312;51.464;6.968;2023-05-10T10:21:23;15.90;99.90
22288;DHT22;11312;51.464;6.968;2023-05-10T10:23:49;16.10;99.90
22288;DHT22;11312;51.464;6.968;2023-05-10T10:26:17;16.00;99.90
22288;DHT22;11312;51.464;6.968;2023-05-10T10:29:04;15.70;99.90
22288;DHT22;11312;51.464;6.968;2023-05-10T10:31:40;15.60;99.90
22288;DHT22;11312;51.464;6.968;2023-05-10T10:34:10;15.60;99.90
22288;DHT22;11312;51.464;6.968;2023-05-10T10:36:57;15.40;99.90
22288;DHT22;11312;51.464;6.968;2023-05-10T10:39:23;15.40;99.90
22288;DHT22;11312;51.464;6.968;2023-05-10T10:41:53;15.50;99.90
22288;DHT22;11312;51.464;6.968;2023-05-10T10:55:19;15.60;99.90
22288;DHT22;11312;51.464;6.968;2023-05-10T10:57:51;15.40;99.90
22288;DHT22;11312;51.464;6.968;2023-05-10T11:00:18;15.40;99.90
22288;DHT22;11312;51.464;6.968;2023-05-10T11:02:45;15.20;99.90
22288;DHT22;11312;51.464;6.968;2023-05-10T11:08:02;15.60;99.90
22288;DHT22;11312;51.464;6.968;2023-05-10T11:10:31;15.60;99.90
22288;DHT22;11312;51.464;6.968;2023-05-10T11:13:06;15.70;99.90
22288;DHT22;11312;51.464;6.968;2023-05-10T11:15:34;15.90;99.90
22288;DHT22;11312;51.464;6.968;2023-05-10T11:18:00;15.70;99.90
22288;DHT22;11312;51.464;6.968;2023-05-10T11:20:41;15.60;99.90
22288;DHT22;11312;51.464;6.968;2023-05-10T11:23:14;15.70;99.90
22288;DHT22;11312;51.464;6.968;2023-05-10T11:25:42;15.80;99.90
22288;DHT22;11312;51.464;6.968;2023-05-10T11:28:09;15.60;99.90
22288;DHT22;11312;51.464;6.968;2023-05-10T11:30:36;15.50;99.90
22288;DHT22;11312;51.464;6.968;2023-05-10T11:33:02;15.50;99.90
22288;DHT22;11312;51.464;6.968;2023-05-10T11:35:28;15.30;99.90
22288;DHT22;11312;51.464;6.968;2023-05-10T11:37:53;15.20;99.90
22288;DHT22;11312;51.464;6.968;2023-05-10T11:40:21;15.40;99.90
22288;DHT22;11312;51.464;6.968;2023-05-10T11:42:50;15.20;99.90
22288;DHT22;11312;51.464;6.968;2023-05-10T11:45:16;15.50;99.90
22288;DHT22;11312;51.464;6.968;2023-05-10T11:47:42;15.90;99.90
22288;DHT22;11312;51.464;6.968;2023-05-10T11:50:10;16.20;99.90
22288;DHT22;11312;51.464;6.968;2023-05-10T11:52:36;16.30;99.90
22288;DHT22;11312;51.464;6.968;2023-05-10T11:55:03;16.40;99.90
22288;DHT22;11312;51.464;6.968;2023-05-10T11:57:28;16.70;99.90
22288;DHT22;11312;51.464;6.968;2023-05-10T11:59:56;16.80;99.90
22288;DHT22;11312;51.464;6.968;2023-05-10T12:02:22;17.00;99.90
22288;DHT22;11312;51.464;6.968;2023-05-10T12:04:48;17.00;99.90
22288;DHT22;11312;51.464;6.968;2023-05-10T12:07:14;17.00;99.90
22288;DHT22;11312;51.464;6.968;2023-05-10T12:09:44;17.20;99.90
22288;DHT22;11312;51.464;6.968;2023-05-10T12:12:15;17.10;99.90
22288;DHT22;11312;51.464;6.968;2023-05-10T12:14:41;17.20;99.90
22288;DHT22;11312;51.464;6.968;2023-05-10T12:17:11;17.20;99.90
22288;DHT22;11312;51.464;6.968;2023-05-10T12:19:40;17.40;99.90
22288;DHT22;11312;51.464;6.968;2023-05-10T12:22:06;17.30;99.90
22288;DHT22;11312;51.464;6.968;2023-05-10T12:24:34;17.40;99.90
22288;DHT22;11312;51.464;6.968;2023-05-10T12:27:05;17.40;99.90
22288;DHT22;11312;51.464;6.968;2023-05-10T12:29:31;17.30;99.90
22288;DHT22;11312;51.464;6.968;2023-05-10T12:32:00;17.10;99.90
22288;DHT22;11312;51.464;6.968;2023-05-10T12:34:33;16.90;99.90
22288;DHT22;11312;51.464;6.968;2023-05-10T12:37:00;17.00;99.90
22288;DHT22;11312;51.464;6.968;2023-05-10T12:39:40;17.20;99.90
22288;DHT22;11312;51.464;6.968;2023-05-10T12:42:06;17.90;99.90
22288;DHT22;11312;51.464;6.968;2023-05-10T12:44:32;18.10;99.90
22288;DHT22;11312;51.464;6.968;2023-05-10T12:46:58;17.80;99.90
22288;DHT22;11312;51.464;6.968;2023-05-10T12:49:23;18.30;1.00
22288;DHT22;11312;51.464;6.968;2023-05-10T12:51:49;18.40;1.00
22288;DHT22;11312;51.464;6.968;2023-05-10T12:54:14;18.10;1.00
22288;DHT22;11312;51.464;6.968;2023-05-10T12:56:40;17.80;1.00
22288;DHT22;11312;51.464;6.968;2023-05-10T12:59:08;17.30;1.00
22288;DHT22;11312;51.464;6.968;2023-05-10T13:01:33;17.40;1.00
22288;DHT22;11312;51.464;6.968;2023-05-10T13:03:59;17.40;1.00
22288;DHT22;11312;51.464;6.968;2023-05-10T13:06:25;17.20;99.90
22288;DHT22;11312;51.464;6.968;2023-05-10T13:08:51;17.40;1.00
22288;DHT22;11312;51.464;6.968;2023-05-10T13:11:17;17.40;1.00
22288;DHT22;11312;51.464;6.968;2023-05-10T13:13:45;17.60;1.00
22288;DHT22;11312;51.464;6.968;2023-05-10T13:16:10;17.70;1.00
22288;DHT22;11312;51.464;6.968;2023-05-10T13:18:36;17.80;99.90
22288;DHT22;11312;51.464;6.968;2023-05-10T13:21:02;18.40;1.00
22288;DHT22;11312;51.464;6.968;2023-05-10T13:23:29;18.70;99.90
22288;DHT22;11312;51.464;6.968;2023-05-10T13:25:55;19.70;99.90
22288;DHT22;11312;51.464;6.968;2023-05-10T13:28:20;20.60;99.90
22288;DHT22;11312;51.464;6.968;2023-05-10T13:30:46;20.60;1.00
22288;DHT22;11312;51.464;6.968;2023-05-10T13:33:11;19.70;99.90
22288;DHT22;11312;51.464;6.968;2023-05-10T13:35:37;19.10;44.70
22288;DHT22;11312;51.464;6.968;2023-05-10T13:38:03;19.60;99.90
22288;DHT22;11312;51.464;6.968;2023-05-10T13:40:28;20.10;1.00
22288;DHT22;11312;51.464;6.968;2023-05-10T13:42:54;19.50;99.90
22288;DHT22;11312;51.464;6.968;2023-05-10T13:45:20;19.10;1.00
22288;DHT22;11312;51.464;6.968;2023-05-10T13:47:46;18.50;99.90
22288;DHT22;11312;51.464;6.968;2023-05-10T13:50:11;18.30;1.00
22288;DHT22;11312;51.464;6.968;2023-05-10T13:52:37;18.40;99.90
22288;DHT22;11312;51.464;6.968;2023-05-10T13:55:03;18.40;99.90
22288;DHT22;11312;51.464;6.968;2023-05-10T13:57:29;18.30;99.90
22288;DHT22;11312;51.464;6.968;2023-05-10T13:59:55;19.10;1.00
22288;DHT22;11312;51.464;6.968;2023-05-10T14:02:22;20.10;99.90
22288;DHT22;11312;51.464;6.968;2023-05-10T14:04:48;20.70;1.00
22288;DHT22;11312;51.464;6.968;2023-05-10T14:07:13;20.90;1.00
22288;DHT22;11312;51.464;6.968;2023-05-10T14:09:39;21.20;89.30
22288;DHT22;11312;51.464;6.968;2023-05-10T14:12:05;20.70;99.90
22288;DHT22;11312;51.464;6.968;2023-05-10T14:14:30;20.10;99.90
22288;DHT22;11312;51.464;6.968;2023-05-10T14:16:56;19.70;99.90
22288;DHT22;11312;51.464;6.968;2023-05-10T14:19:21;19.60;99.90
22288;DHT22;11312;51.464;6.968;2023-05-10T14:21:47;19.40;99.90
22288;DHT22;11312;51.464;6.968;2023-05-10T14:24:12;19.90;99.90
22288;DHT22;11312;51.464;6.968;2023-05-10T14:26:38;20.30;99.90
22288;DHT22;11312;51.464;6.968;2023-05-10T14:29:04;20.20;99.90
22288;DHT22;11312;51.464;6.968;2023-05-10T14:31:29;19.60;45.60
22288;DHT22;11312;51.464;6.968;2023-05-10T14:33:56;19.10;99.90
22288;DHT22;11312;51.464;6.968;2023-05-10T14:36:22;18.80;99.90
22288;DHT22;11312;51.464;6.968;2023-05-10T14:38:48;18.50;99.90
22288;DHT22;11312;51.464;6.968;2023-05-10T14:41:13;18.50;99.90
22288;DHT22;11312;51.464;6.968;2023-05-10T14:43:40;18.20;99.90
22288;DHT22;11312;51.464;6.968;2023-05-10T14:46:07;18.10;99.90
22288;DHT22;11312;51.464;6.968;2023-05-10T14:48:33;18.00;99.90
22288;DHT22;11312;51.464;6.968;2023-05-10T14:50:59;17.90;99.90
22288;DHT22;11312;51.464;6.968;2023-05-10T14:53:25;17.90;99.90
22288;DHT22;11312;51.464;6.968;2023-05-10T14:55:50;17.90;99.90
22288;DHT22;11312;51.464;6.968;2023-05-10T14:58:16;17.90;99.90
22288;DHT22;11312;51.464;6.968;2023-05-10T15:00:42;18.10;99.90
22288;DHT22;11312;51.464;6.968;2023-05-10T15:03:09;18.10;99.90
22288;DHT22;11312;51.464;6.968;2023-05-10T15:05:34;18.40;99.90
22288;DHT22;11312;51.464;6.968;2023-05-10T15:08:00;18.90;99.90
22288;DHT22;11312;51.464;6.968;2023-05-10T15:10:25;18.80;99.90
22288;DHT22;11312;51.464;6.968;2023-05-10T15:12:51;18.70;99.90
22288;DHT22;11312;51.464;6.968;2023-05-10T15:15:17;18.50;99.90
22288;DHT22;11312;51.464;6.968;2023-05-10T15:17:42;18.40;99.90
22288;DHT22;11312;51.464;6.968;2023-05-10T15:20:08;18.20;99.90
22288;DHT22;11312;51.464;6.968;2023-05-10T15:22:33;18.10;99.90
22288;DHT22;11312;51.464;6.968;2023-05-10T15:24:59;18.00;99.90
22288;DHT22;11312;51.464;6.968;2023-05-10T15:27:25;18.00;99.90
22288;DHT22;11312;51.464;6.968;2023-05-10T15:29:51;17.90;99.90
22288;DHT22;11312;51.464;6.968;2023-05-10T15:32:17;17.90;99.90
22288;DHT22;11312;51.464;6.968;2023-05-10T15:34:43;18.10;99.90
22288;DHT22;11312;51.464;6.968;2023-05-10T15:37:08;18.30;99.90
22288;DHT22;11312;51.464;6.968;2023-05-10T15:39:35;18.30;99.90
22288;DHT22;11312;51.464;6.968;2023-05-10T15:42:00;18.40;99.90
22288;DHT22;11312;51.464;6.968;2023-05-10T15:44:26;18.50;99.90
22288;DHT22;11312;51.464;6.968;2023-05-10T15:46:52;18.70;99.90
22288;DHT22;11312;51.464;6.968;2023-05-10T15:49:18;18.70;99.90
22288;DHT22;11312;51.464;6.968;2023-05-10T15:51:43;18.50;99.90
22288;DHT22;11312;51.464;6.968;2023-05-10T15:54:09;18.50;99.90
22288;DHT22;11312;51.464;6.968;2023-05-10T15:56:35;18.40;99.90
22288;DHT22;11312;51.464;6.968;2023-05-10T15:59:00;18.20;99.90
22288;DHT22;11312;51.464;6.968;2023-05-10T16:01:26;17.90;99.90
22288;DHT22;11312;51.464;6.968;2023-05-10T16:03:52;17.70;99.90